createdAt,value
2019-01-30T00:02:10.933Z,23.97
2019-01-30T00:04:44.272Z,23.87
2019-01-30T00:07:20.730Z,26.00
2019-01-30T00:09:55.760Z,25.93
2019-01-30T00:12:32.178Z,26.73
2019-01-30T00:15:13.307Z,28.83
2019-01-30T00:17:48.832Z,26.20
2019-01-30T00:20:22.238Z,24.70
2019-01-30T00:22:58.430Z,31.43
2019-01-30T00:25:33.327Z,32.10
2019-01-30T00:28:06.792Z,27.27
2019-01-30T00:30:40.193Z,28.90
2019-01-30T00:33:13.597Z,33.87
2019-01-30T00:35:48.548Z,29.20
2019-01-30T00:38:22.228Z,22.27
2019-01-30T00:40:55.644Z,24.60
2019-01-30T00:43:29.081Z,22.73
2019-01-30T00:46:02.479Z,23.13
2019-01-30T00:48:35.979Z,24.00
2019-01-30T00:51:09.429Z,25.53
2019-01-30T00:53:42.846Z,20.67
2019-01-30T00:56:16.178Z,24.60
2019-01-30T00:58:49.678Z,27.67
2019-01-30T01:01:24.542Z,22.30
2019-01-30T01:03:57.912Z,21.47
2019-01-30T01:06:32.744Z,28.17
2019-01-30T01:09:10.841Z,23.50
2019-01-30T01:11:44.297Z,25.83
2019-01-30T01:14:17.751Z,27.77
2019-01-30T01:16:52.735Z,26.07
2019-01-30T01:19:26.149Z,28.27
2019-01-30T01:22:03.120Z,25.60
2019-01-30T01:24:38.432Z,27.07
2019-01-30T01:27:17.484Z,23.70
2019-01-30T01:29:50.945Z,23.57
2019-01-30T01:32:24.283Z,25.90
2019-01-30T01:35:05.326Z,26.90
2019-01-30T01:37:38.821Z,31.77
2019-01-30T01:40:21.514Z,27.07
2019-01-30T01:42:57.028Z,24.50
2019-01-30T01:45:34.749Z,21.40
2019-01-30T01:48:08.254Z,32.20
2019-01-30T01:50:44.031Z,22.70
2019-01-30T01:53:19.053Z,27.10
2019-01-30T01:55:52.362Z,22.43
2019-01-30T01:58:25.725Z,32.17
2019-01-30T02:00:59.119Z,27.20
2019-01-30T02:03:32.485Z,22.07
2019-01-30T02:06:05.946Z,26.77
2019-01-30T02:08:39.392Z,23.70
2019-01-30T02:11:12.779Z,27.13
2019-01-30T02:13:46.237Z,31.30
2019-01-30T02:16:19.649Z,24.40
2019-01-30T02:18:53.098Z,22.63
2019-01-30T02:21:26.443Z,22.70
2019-01-30T02:23:59.815Z,27.73
2019-01-30T02:26:33.168Z,19.87
2019-01-30T02:29:06.685Z,28.27
2019-01-30T02:31:40.094Z,23.00
2019-01-30T02:34:13.546Z,23.57
2019-01-30T02:36:58.559Z,29.43
2019-01-30T02:39:32.072Z,29.03
2019-01-30T02:42:05.491Z,21.33
2019-01-30T02:44:38.886Z,24.93
2019-01-30T02:47:12.227Z,29.83
2019-01-30T02:49:45.673Z,28.70
2019-01-30T02:52:19.007Z,26.87
2019-01-30T02:54:52.464Z,26.63
2019-01-30T02:57:25.867Z,24.70
2019-01-30T02:59:59.393Z,21.80
2019-01-30T03:02:40.239Z,27.67
2019-01-30T03:05:15.130Z,27.90
2019-01-30T03:07:54.258Z,25.07
2019-01-30T03:10:32.264Z,28.23
2019-01-30T03:13:07.803Z,22.47
2019-01-30T03:15:45.881Z,28.37
2019-01-30T03:18:19.228Z,20.87
2019-01-30T03:20:57.561Z,25.37
2019-01-30T03:23:33.414Z,29.30
2019-01-30T03:26:08.985Z,23.53
2019-01-30T03:28:44.448Z,25.47
2019-01-30T03:31:21.065Z,20.90
2019-01-30T03:33:57.080Z,28.87
2019-01-30T03:36:30.422Z,23.40
2019-01-30T03:39:05.516Z,23.13
2019-01-30T03:41:40.461Z,22.63
2019-01-30T03:44:13.990Z,26.80
2019-01-30T03:46:49.026Z,21.90
2019-01-30T03:49:23.961Z,24.63
2019-01-30T03:51:57.420Z,27.80
2019-01-30T03:54:30.873Z,22.00
2019-01-30T03:57:04.289Z,20.47
2019-01-30T03:59:37.812Z,21.27
2019-01-30T04:02:11.253Z,28.60
2019-01-30T04:04:47.817Z,22.93
2019-01-30T04:07:21.160Z,22.63
2019-01-30T04:09:57.397Z,28.93
2019-01-30T04:12:30.820Z,22.77
2019-01-30T04:15:10.133Z,23.63
2019-01-30T04:17:43.671Z,24.53
2019-01-30T04:20:21.883Z,35.47
2019-01-30T04:22:57.766Z,25.03
2019-01-30T04:25:31.230Z,33.13
2019-01-30T04:28:05.003Z,27.37
2019-01-30T04:30:38.455Z,28.77
2019-01-30T04:33:11.869Z,24.13
2019-01-30T04:35:51.125Z,25.67
2019-01-30T04:38:24.715Z,28.50
2019-01-30T04:41:01.066Z,30.83
2019-01-30T04:43:34.490Z,31.57
2019-01-30T04:46:07.954Z,28.07
2019-01-30T04:48:42.955Z,25.83
2019-01-30T04:51:18.465Z,29.70
2019-01-30T04:54:14.155Z,29.30
2019-01-30T04:56:52.180Z,24.47
2019-01-30T04:59:30.122Z,33.43
2019-01-30T05:02:05.136Z,31.57
2019-01-30T05:04:42.211Z,24.40
2019-01-30T05:07:16.946Z,38.47
2019-01-30T05:09:50.473Z,29.80
2019-01-30T05:12:26.629Z,36.43
2019-01-30T05:15:00.241Z,29.10
2019-01-30T05:17:36.862Z,25.13
2019-01-30T05:20:14.067Z,33.93
2019-01-30T05:22:51.921Z,29.70
2019-01-30T05:25:29.841Z,37.07
2019-01-30T05:28:03.259Z,28.63
2019-01-30T05:30:39.704Z,26.53
2019-01-30T05:33:13.118Z,34.77
2019-01-30T05:35:48.087Z,29.97
2019-01-30T05:38:24.006Z,27.20
2019-01-30T05:40:57.321Z,31.93
2019-01-30T05:43:30.803Z,29.27
2019-01-30T05:46:06.976Z,33.00
2019-01-30T05:48:40.379Z,26.40
2019-01-30T05:51:18.209Z,33.03
2019-01-30T05:53:51.549Z,26.57
2019-01-30T05:56:35.121Z,21.80
2019-01-30T05:59:10.527Z,28.93
2019-01-30T06:01:47.200Z,26.97
2019-01-30T06:04:20.801Z,31.17
2019-01-30T06:06:54.481Z,29.07
2019-01-30T06:09:35.368Z,32.30
2019-01-30T06:12:09.035Z,33.47
2019-01-30T06:14:45.543Z,42.83
2019-01-30T06:17:20.638Z,40.77
2019-01-30T06:19:54.083Z,31.47
2019-01-30T06:22:29.004Z,33.97
2019-01-30T06:25:04.329Z,31.50
2019-01-30T06:27:40.553Z,34.47
2019-01-30T06:30:18.608Z,35.87
2019-01-30T06:32:52.076Z,41.13
2019-01-30T06:35:26.554Z,36.83
2019-01-30T06:38:04.314Z,25.67
2019-01-30T06:40:39.406Z,36.03
2019-01-30T06:43:12.835Z,33.53
2019-01-30T06:45:52.455Z,41.17
2019-01-30T06:48:32.034Z,35.20
2019-01-30T06:51:07.358Z,29.03
2019-01-30T06:53:42.541Z,38.57
2019-01-30T06:56:19.008Z,34.23
2019-01-30T06:58:55.665Z,34.97
2019-01-30T07:01:39.230Z,38.93
2019-01-30T07:04:19.967Z,33.10
2019-01-30T07:06:53.366Z,33.17
2019-01-30T07:09:26.770Z,36.13
2019-01-30T07:12:02.802Z,30.27
2019-01-30T07:14:42.574Z,33.77
2019-01-30T07:17:16.230Z,42.23
2019-01-30T07:19:49.661Z,36.53
2019-01-30T07:22:24.491Z,30.30
2019-01-30T07:24:57.904Z,33.23
2019-01-30T07:27:34.539Z,37.33
2019-01-30T07:30:13.797Z,32.60
2019-01-30T07:32:47.319Z,34.13
2019-01-30T07:35:25.172Z,31.87
2019-01-30T07:37:58.960Z,34.97
2019-01-30T07:40:32.411Z,28.87
2019-01-30T07:43:08.285Z,27.93
2019-01-30T07:45:48.074Z,30.73
2019-01-30T07:48:27.172Z,27.90
2019-01-30T07:51:01.468Z,26.50
2019-01-30T07:53:40.395Z,33.23
2019-01-30T07:56:15.480Z,30.97
2019-01-30T07:58:48.897Z,32.67
2019-01-30T08:01:29.072Z,30.63
2019-01-30T08:04:05.041Z,30.47
2019-01-30T08:06:38.649Z,26.67
2019-01-30T08:09:27.805Z,28.17
2019-01-30T08:11:52.655Z,27.47
2019-01-30T08:14:26.058Z,27.60
2019-01-30T08:17:01.148Z,25.07
2019-01-30T08:19:36.131Z,25.70
2019-01-30T08:22:09.577Z,26.40
2019-01-30T08:24:43.098Z,23.87
2019-01-30T08:27:20.861Z,24.97
2019-01-30T08:29:57.460Z,30.07
2019-01-30T08:32:31.356Z,24.60
2019-01-30T08:35:08.996Z,27.20
2019-01-30T08:37:42.553Z,31.00
2019-01-30T08:40:17.548Z,26.53
2019-01-30T08:42:52.637Z,25.50
2019-01-30T08:45:29.861Z,26.63
2019-01-30T08:48:07.669Z,23.77
2019-01-30T08:50:44.678Z,24.53
2019-01-30T08:53:28.924Z,21.83
2019-01-30T08:56:05.780Z,21.23
2019-01-30T08:58:39.145Z,20.53
2019-01-30T09:01:12.571Z,20.30
2019-01-30T09:03:46.076Z,19.17
2019-01-30T09:06:19.822Z,20.60
2019-01-30T09:08:53.244Z,18.80
2019-01-30T09:11:26.800Z,21.73
2019-01-30T09:14:00.249Z,20.33
2019-01-30T09:16:33.665Z,22.13
2019-01-30T09:19:10.390Z,22.53
2019-01-30T09:21:43.839Z,23.67
2019-01-30T09:24:17.342Z,21.33
2019-01-30T09:26:53.597Z,17.60
2019-01-30T09:29:30.068Z,18.40
2019-01-30T09:32:03.615Z,21.10
2019-01-30T09:34:36.931Z,18.23
2019-01-30T09:37:10.459Z,19.43
2019-01-30T09:39:45.186Z,20.00
2019-01-30T09:42:21.379Z,17.23
2019-01-30T09:44:54.685Z,17.60
2019-01-30T09:47:31.086Z,18.73
2019-01-30T09:50:07.614Z,16.07
2019-01-30T09:52:43.873Z,17.33
2019-01-30T09:55:18.828Z,16.30
2019-01-30T09:57:56.169Z,15.00
2019-01-30T10:00:38.591Z,16.57
2019-01-30T10:03:10.918Z,15.27
2019-01-30T10:05:44.356Z,14.07
2019-01-30T10:08:20.542Z,14.93
2019-01-30T10:10:56.934Z,14.37
2019-01-30T10:13:30.292Z,13.30
2019-01-30T10:16:05.451Z,16.00
2019-01-30T10:18:42.754Z,13.87
2019-01-30T10:21:16.154Z,14.80
2019-01-30T10:23:52.106Z,14.80
2019-01-30T10:26:28.408Z,14.93
2019-01-30T10:29:03.402Z,15.00
2019-01-30T10:31:41.121Z,15.23
2019-01-30T10:34:16.212Z,14.43
2019-01-30T10:36:52.119Z,13.60
2019-01-30T10:39:32.705Z,12.10
2019-01-30T10:42:07.793Z,13.50
2019-01-30T10:44:41.318Z,12.50
2019-01-30T10:47:14.724Z,12.40
2019-01-30T10:49:49.681Z,13.10
2019-01-30T10:52:24.611Z,12.03
2019-01-30T10:55:01.122Z,12.63
2019-01-30T10:57:34.577Z,12.37
2019-01-30T11:00:21.851Z,11.23
2019-01-30T11:02:55.379Z,12.63
2019-01-30T11:05:30.428Z,12.43
2019-01-30T11:08:05.516Z,12.90
2019-01-30T11:10:39.254Z,13.03
2019-01-30T11:13:15.063Z,10.73
2019-01-30T11:15:48.666Z,14.70
2019-01-30T11:18:24.018Z,12.50
2019-01-30T11:20:57.438Z,10.43
2019-01-30T11:23:30.952Z,10.63
2019-01-30T11:26:04.436Z,11.27
2019-01-30T11:28:40.387Z,9.90
2019-01-30T11:31:15.267Z,10.53
2019-01-30T11:33:51.928Z,10.23
2019-01-30T11:36:29.406Z,10.07
2019-01-30T11:39:07.708Z,8.60
2019-01-30T11:41:42.583Z,9.67
2019-01-30T11:44:16.074Z,8.70
2019-01-30T11:46:49.707Z,11.13
2019-01-30T11:49:23.206Z,9.80
2019-01-30T11:51:56.638Z,8.03
2019-01-30T11:54:38.640Z,10.60
2019-01-30T11:57:08.404Z,9.63
2019-01-30T11:59:41.806Z,7.67
2019-01-30T12:02:15.239Z,9.87
2019-01-30T12:04:53.015Z,7.27
2019-01-30T12:07:26.453Z,8.30
2019-01-30T12:10:01.491Z,6.70
2019-01-30T12:12:38.243Z,6.63
2019-01-30T12:15:14.753Z,6.63
2019-01-30T12:17:48.202Z,8.50
2019-01-30T12:20:21.730Z,7.20
2019-01-30T12:22:56.479Z,6.70
2019-01-30T12:25:32.867Z,7.57
2019-01-30T12:28:04.835Z,6.80
2019-01-30T12:33:13.840Z,8.83
2019-01-30T12:35:47.249Z,5.67
2019-01-30T12:38:20.760Z,6.60
2019-01-30T12:40:54.176Z,8.63
2019-01-30T12:43:30.627Z,5.83
2019-01-30T12:46:08.319Z,6.83
2019-01-30T12:48:48.898Z,9.10
2019-01-30T12:51:21.892Z,6.03
2019-01-30T12:53:58.505Z,6.17
2019-01-30T12:56:31.914Z,6.17
2019-01-30T12:59:08.581Z,5.93
2019-01-30T13:01:42.176Z,6.13
2019-01-30T13:04:15.612Z,5.60
2019-01-30T13:06:51.983Z,5.43
2019-01-30T13:09:28.638Z,5.40
2019-01-30T13:12:02.069Z,7.20
2019-01-30T13:14:37.369Z,4.83
2019-01-30T13:17:12.524Z,6.37
2019-01-30T13:19:47.630Z,5.40
2019-01-30T13:22:22.730Z,5.10
2019-01-30T13:24:58.585Z,5.90
2019-01-30T13:27:35.042Z,5.97
2019-01-30T13:30:36.388Z,5.63
2019-01-30T13:33:14.157Z,6.70
2019-01-30T13:35:48.563Z,6.17
2019-01-30T13:38:23.627Z,5.63
2019-01-30T13:40:57.029Z,5.60
2019-01-30T13:43:31.954Z,5.33
2019-01-30T13:46:09.297Z,5.53
2019-01-30T13:48:42.823Z,5.70
2019-01-30T13:51:16.239Z,6.43
2019-01-30T13:53:49.695Z,5.70
2019-01-30T13:56:23.144Z,5.67
2019-01-30T13:58:56.618Z,5.20
2019-01-30T14:01:34.632Z,5.30
2019-01-30T14:04:12.817Z,6.03
2019-01-30T14:06:46.225Z,6.20
2019-01-30T14:09:22.782Z,4.93
2019-01-30T14:12:02.415Z,5.97
2019-01-30T14:14:38.669Z,4.80
2019-01-30T14:17:14.830Z,5.87
2019-01-30T14:19:52.118Z,5.37
2019-01-30T14:22:28.666Z,5.67
2019-01-30T14:25:02.105Z,6.03
2019-01-30T14:27:39.384Z,5.80
2019-01-30T14:30:18.500Z,4.87
2019-01-30T14:32:54.777Z,5.40
2019-01-30T14:35:30.549Z,5.20
2019-01-30T14:38:06.956Z,5.47
2019-01-30T14:40:43.289Z,6.37
2019-01-30T14:43:18.131Z,5.50
2019-01-30T14:48:54.401Z,6.73
2019-01-30T14:51:29.445Z,6.20
2019-01-30T14:54:04.158Z,8.07
2019-01-30T14:56:37.574Z,7.53
2019-01-30T14:59:11.037Z,7.73
2019-01-30T15:01:44.668Z,5.60
2019-01-30T15:04:18.101Z,6.43
2019-01-30T15:06:51.553Z,6.97
2019-01-30T15:09:24.982Z,5.27
2019-01-30T15:11:58.661Z,6.57
2019-01-30T15:14:32.106Z,5.87
2019-01-30T15:17:05.739Z,6.00
2019-01-30T15:19:39.278Z,6.33
2019-01-30T15:22:21.741Z,6.47
2019-01-30T15:24:56.769Z,7.73
2019-01-30T15:45:17.588Z,6.30
2019-01-30T15:47:53.291Z,6.10
2019-01-30T15:50:29.684Z,6.03
2019-01-30T15:53:11.655Z,7.07
2019-01-30T15:55:45.210Z,8.70
2019-01-30T15:58:20.073Z,6.83
2019-01-30T16:01:02.339Z,6.80
2019-01-30T16:03:35.821Z,7.40
2019-01-30T16:06:11.051Z,7.50
2019-01-30T16:08:46.234Z,8.57
2019-01-30T16:11:19.863Z,9.03
2019-01-30T16:13:55.849Z,7.93
2019-01-30T16:16:28.795Z,7.10
2019-01-30T16:19:02.254Z,7.37
2019-01-30T16:21:39.730Z,7.77
2019-01-30T16:24:15.866Z,7.03
2019-01-30T16:26:50.818Z,7.53
2019-01-30T16:29:24.264Z,7.87
2019-01-30T16:31:57.689Z,7.60
2019-01-30T16:34:31.058Z,7.33
2019-01-30T16:37:06.170Z,7.07
2019-01-30T16:39:39.683Z,7.60
2019-01-30T16:42:14.612Z,7.80
2019-01-30T16:44:48.060Z,6.97
2019-01-30T16:47:21.472Z,7.87
2019-01-30T16:49:57.915Z,7.93
2019-01-30T16:52:31.436Z,7.70
2019-01-30T16:55:11.027Z,8.13
2019-01-30T16:57:46.004Z,7.77
2019-01-30T17:00:23.808Z,8.80
2019-01-30T17:02:58.986Z,10.07
2019-01-30T17:05:35.522Z,8.73
2019-01-30T17:08:16.336Z,8.67
2019-01-30T17:10:54.006Z,8.40
2019-01-30T17:13:30.175Z,8.43
2019-01-30T17:16:03.730Z,8.70
2019-01-30T17:18:44.361Z,8.63
2019-01-30T17:21:24.384Z,10.63
2019-01-30T17:23:59.294Z,11.30
2019-01-30T17:26:32.783Z,11.27
2019-01-30T17:29:07.658Z,8.10
2019-01-30T17:31:42.749Z,8.60
2019-01-30T17:34:16.401Z,12.37
2019-01-30T17:36:50.841Z,10.23
2019-01-30T17:39:30.192Z,10.47
2019-01-30T17:42:01.124Z,9.77
2019-01-30T17:44:34.691Z,9.00
2019-01-30T17:47:10.634Z,10.57
2019-01-30T17:49:47.084Z,9.80
2019-01-30T17:52:20.914Z,9.00
2019-01-30T17:55:06.193Z,9.47
2019-01-30T17:57:42.907Z,12.37
2019-01-30T18:00:21.101Z,8.63
2019-01-30T18:02:57.607Z,9.90
2019-01-30T18:05:32.701Z,11.23
2019-01-30T18:08:09.096Z,9.17
2019-01-30T18:10:47.727Z,8.87
2019-01-30T18:13:24.112Z,10.80
2019-01-30T18:15:57.553Z,10.83
2019-01-30T18:18:30.961Z,11.00
2019-01-30T18:21:04.476Z,10.87
2019-01-30T18:23:37.896Z,11.23
2019-01-30T18:26:11.345Z,9.67
2019-01-30T18:28:53.447Z,10.70
2019-01-30T18:31:29.061Z,11.03
2019-01-30T18:34:05.352Z,10.37
2019-01-30T18:36:47.806Z,12.17
2019-01-30T18:40:17.890Z,10.47
2019-01-30T18:43:02.993Z,11.63
2019-01-30T18:45:36.591Z,12.37
2019-01-30T18:50:50.787Z,12.90
2019-01-30T18:53:24.275Z,11.20
2019-01-30T18:55:57.777Z,12.77
2019-01-30T18:58:31.339Z,12.67
2019-01-30T19:01:06.885Z,12.73
2019-01-30T19:03:40.652Z,11.60
2019-01-30T19:06:14.285Z,12.97
2019-01-30T19:08:47.827Z,14.00
2019-01-30T19:11:21.292Z,13.60
2019-01-30T19:13:54.899Z,15.37
2019-01-30T19:16:28.505Z,12.77
2019-01-30T19:19:02.033Z,13.40
2019-01-30T19:21:35.619Z,15.33
2019-01-30T19:24:09.160Z,12.17
2019-01-30T19:26:42.693Z,12.93
2019-01-30T19:29:16.334Z,11.93
2019-01-30T19:31:50.164Z,14.47
2019-01-30T19:34:23.750Z,12.67
2019-01-30T19:37:03.460Z,15.53
2019-01-30T19:39:32.664Z,13.60
2019-01-30T19:42:06.169Z,13.80
2019-01-30T19:44:39.612Z,15.97
2019-01-30T19:47:13.239Z,14.93
2019-01-30T19:49:46.736Z,12.60
2019-01-30T19:52:20.301Z,15.53
2019-01-30T19:54:53.780Z,15.17
2019-01-30T19:57:27.302Z,15.17
2019-01-30T20:00:00.767Z,13.67
2019-01-30T20:02:34.280Z,13.60
2019-01-30T20:05:10.801Z,14.70
2019-01-30T20:07:44.316Z,14.73
2019-01-30T20:10:23.689Z,12.63
2019-01-30T20:12:57.333Z,13.30
2019-01-30T20:15:31.270Z,14.40
2019-01-30T20:18:05.153Z,16.43
2019-01-30T20:20:38.646Z,14.93
2019-01-30T20:23:12.890Z,15.77
2019-01-30T20:25:46.399Z,33.50
2019-01-30T20:28:19.965Z,15.03
2019-01-30T20:30:53.503Z,17.93
2019-01-30T20:33:26.958Z,15.53
2019-01-30T20:36:00.561Z,16.27
2019-01-30T20:38:34.085Z,16.47
2019-01-30T20:41:07.745Z,16.70
2019-01-30T20:43:41.558Z,15.80
2019-01-30T20:46:15.214Z,14.37
2019-01-30T20:48:51.828Z,17.33
2019-01-30T20:51:24.218Z,15.73
2019-01-30T20:54:00.591Z,16.67
2019-01-30T20:56:33.153Z,18.20
2019-01-30T20:59:06.698Z,16.27
2019-01-30T21:01:40.234Z,15.00
2019-01-30T21:04:13.870Z,19.10
2019-01-30T21:06:47.400Z,15.97
2019-01-30T21:09:21.179Z,16.73
2019-01-30T21:11:54.803Z,15.20
2019-01-30T21:14:28.509Z,16.77
2019-01-30T21:17:02.062Z,14.97
2019-01-30T21:19:35.572Z,15.37
2019-01-30T21:22:09.166Z,17.37
2019-01-30T21:24:43.143Z,15.70
2019-01-30T21:27:16.596Z,16.20
2019-01-30T21:29:50.947Z,15.77
2019-01-30T21:32:24.410Z,18.37
2019-01-30T21:34:57.957Z,16.70
2019-01-30T21:37:31.418Z,16.73
2019-01-30T21:40:07.956Z,17.00
2019-01-30T21:42:42.643Z,13.80
2019-01-30T21:45:23.475Z,14.87
2019-01-30T21:47:57.082Z,18.30
2019-01-30T21:50:30.888Z,16.57
2019-01-30T21:53:05.144Z,14.70
2019-01-30T21:55:38.767Z,15.93
2019-01-30T21:58:14.044Z,16.17
2019-01-30T22:00:48.203Z,15.43
2019-01-30T22:03:22.010Z,15.87
2019-01-30T22:05:57.860Z,14.67
2019-01-30T22:08:31.280Z,15.10
2019-01-30T22:11:05.083Z,16.33
2019-01-30T22:13:38.765Z,14.77
2019-01-30T22:16:12.230Z,14.73
2019-01-30T22:18:45.785Z,17.07
2019-01-30T22:21:19.196Z,15.70
2019-01-30T22:23:52.636Z,15.93
2019-01-30T22:26:26.123Z,15.80
2019-01-30T22:28:59.509Z,15.93
2019-01-30T22:31:32.933Z,17.43
2019-01-30T22:34:06.491Z,16.77
2019-01-30T22:36:39.965Z,17.53
2019-01-30T22:39:13.430Z,14.90
2019-01-30T22:41:46.839Z,14.87
2019-01-30T22:44:20.294Z,17.70
2019-01-30T22:46:53.712Z,15.70
2019-01-30T22:49:27.357Z,14.90
2019-01-30T22:52:00.820Z,14.60
2019-01-30T22:54:34.300Z,14.63
2019-01-30T22:57:07.782Z,17.80
2019-01-30T22:59:41.587Z,14.90
2019-01-30T23:02:15.166Z,16.63
2019-01-30T23:04:54.322Z,15.37
2019-01-30T23:07:37.064Z,15.00
2019-01-30T23:10:33.326Z,14.57
2019-01-30T23:13:12.500Z,13.93
2019-01-30T23:16:00.892Z,14.60
2019-01-30T23:18:46.170Z,15.50
2019-01-30T23:21:25.424Z,14.50
2019-01-30T23:24:21.398Z,15.10
2019-01-30T23:27:03.743Z,14.87
2019-01-30T23:29:51.894Z,14.47
2019-01-30T23:32:34.522Z,13.87
2019-01-30T23:35:37.066Z,14.67
2019-01-30T23:38:16.479Z,13.83
2019-01-30T23:41:01.847Z,15.03
2019-01-30T23:43:41.456Z,15.27
2019-01-30T23:46:21.002Z,14.70
2019-01-30T23:48:57.594Z,16.47
2019-01-30T23:51:52.335Z,14.93
2019-01-30T23:54:31.515Z,13.70
2019-01-30T23:57:22.938Z,14.60
